<?xml version="1.0" encoding="UTF-8" standalone="no" ?>
<gpx xmlns="http://www.topografix.com/GPX/1/1" xmlns:xsi="http://www.w3.org/2001/XMLSchema-instance" xsi:schemaLocation="http://www.topografix.com/GPX/1/1 http://www.topografix.com/GPX/1/1/gpx.xsd" version="1.1" creator="VisuGPX - https://www.visugpx.com">
  <metadata>
    <name>1. Impasse Victor à la Mosquée à Marie St Christo en Jarez</name>
  </metadata>
  <wpt lat="45.48265" lon="4.43629">
    <ele>508.5</ele>
    <name><![CDATA[Imp. Victor Hugo]]></name>
  </wpt>
  <trk>
    <name><![CDATA[1. Impasse Victor à la Mosquée à Marie St Christo en Jarez]]></name>
    <extensions>
      <line xmlns="http://www.topografix.com/GPX/gpx_style/0/2">
        <color>0000FF</color>
        <width>4</width>
      </line>
    </extensions>
    <trkseg>
      <trkpt lat="45.48264" lon="4.43628">
        <ele>509.5</ele>
        <time>2025-11-25T12:06:04.611Z</time>
      </trkpt>
      <trkpt lat="45.48248" lon="4.43649">
        <ele>509.25</ele>
        <time>2025-11-25T12:06:15.271Z</time>
      </trkpt>
      <trkpt lat="45.48222" lon="4.43706">
        <ele>509.5</ele>
        <time>2025-11-25T12:06:39.154Z</time>
      </trkpt>
      <trkpt lat="45.48216" lon="4.43714">
        <ele>509.5</ele>
        <time>2025-11-25T12:06:43.155Z</time>
      </trkpt>
      <trkpt lat="45.48211" lon="4.43716">
        <ele>509.5</ele>
        <time>2025-11-25T12:06:45.983Z</time>
      </trkpt>
      <trkpt lat="45.48207" lon="4.43719">
        <ele>509.5</ele>
        <time>2025-11-25T12:06:48.352Z</time>
      </trkpt>
      <trkpt lat="45.48203" lon="4.43721">
        <ele>509.5</ele>
        <time>2025-11-25T12:06:50.437Z</time>
      </trkpt>
      <trkpt lat="45.48221" lon="4.43775">
        <ele>508.25</ele>
        <time>2025-11-25T12:07:11.648Z</time>
      </trkpt>
      <trkpt lat="45.48229" lon="4.43796">
        <ele>507.75</ele>
        <time>2025-11-25T12:07:19.837Z</time>
      </trkpt>
      <trkpt lat="45.48235" lon="4.43812">
        <ele>507.25</ele>
        <time>2025-11-25T12:07:26.093Z</time>
      </trkpt>
      <trkpt lat="45.48241" lon="4.43827">
        <ele>507</ele>
        <time>2025-11-25T12:07:32.237Z</time>
      </trkpt>
      <trkpt lat="45.48254" lon="4.43863">
        <ele>507.5</ele>
        <time>2025-11-25T12:07:46.707Z</time>
      </trkpt>
      <trkpt lat="45.48259" lon="4.43879">
        <ele>507.75</ele>
        <time>2025-11-25T12:07:52.541Z</time>
      </trkpt>
      <trkpt lat="45.48259" lon="4.43879">
        <ele>507.75</ele>
        <time>2025-11-25T12:07:52.541Z</time>
      </trkpt>
      <trkpt lat="45.48262" lon="4.43893">
        <ele>508</ele>
        <time>2025-11-25T12:07:57.938Z</time>
      </trkpt>
      <trkpt lat="45.48267" lon="4.43922">
        <ele>508</ele>
        <time>2025-11-25T12:08:08.369Z</time>
      </trkpt>
      <trkpt lat="45.48266" lon="4.4395">
        <ele>506.75</ele>
        <time>2025-11-25T12:08:18.197Z</time>
      </trkpt>
      <trkpt lat="45.48265" lon="4.43967">
        <ele>503</ele>
        <time>2025-11-25T12:08:23.977Z</time>
      </trkpt>
      <trkpt lat="45.48258" lon="4.44078">
        <ele>503</ele>
        <time>2025-11-25T12:09:03.031Z</time>
      </trkpt>
      <trkpt lat="45.48257" lon="4.44093">
        <ele>503</ele>
        <time>2025-11-25T12:09:08.357Z</time>
      </trkpt>
      <trkpt lat="45.48257" lon="4.44097">
        <ele>503.25</ele>
        <time>2025-11-25T12:09:09.726Z</time>
      </trkpt>
      <trkpt lat="45.48257" lon="4.44097">
        <ele>503.25</ele>
        <time>2025-11-25T12:09:09.726Z</time>
      </trkpt>
      <trkpt lat="45.48255" lon="4.44116">
        <ele>503.25</ele>
        <time>2025-11-25T12:09:16.623Z</time>
      </trkpt>
      <trkpt lat="45.48249" lon="4.44134">
        <ele>503.5</ele>
        <time>2025-11-25T12:09:23.477Z</time>
      </trkpt>
      <trkpt lat="45.48242" lon="4.44156">
        <ele>503.5</ele>
        <time>2025-11-25T12:09:31.952Z</time>
      </trkpt>
      <trkpt lat="45.48235" lon="4.44168">
        <ele>503.5</ele>
        <time>2025-11-25T12:09:37.586Z</time>
      </trkpt>
      <trkpt lat="45.48221" lon="4.44195">
        <ele>503.25</ele>
        <time>2025-11-25T12:09:49.226Z</time>
      </trkpt>
      <trkpt lat="45.48196" lon="4.44237">
        <ele>502.5</ele>
        <time>2025-11-25T12:10:08.554Z</time>
      </trkpt>
      <trkpt lat="45.48186" lon="4.44265">
        <ele>502.75</ele>
        <time>2025-11-25T12:10:19.554Z</time>
      </trkpt>
      <trkpt lat="45.48184" lon="4.44274">
        <ele>503</ele>
        <time>2025-11-25T12:10:22.851Z</time>
      </trkpt>
      <trkpt lat="45.4817" lon="4.44359">
        <ele>504.25</ele>
        <time>2025-11-25T12:10:53.541Z</time>
      </trkpt>
      <trkpt lat="45.48165" lon="4.44397">
        <ele>504.5</ele>
        <time>2025-11-25T12:11:07.161Z</time>
      </trkpt>
      <trkpt lat="45.48163" lon="4.44406">
        <ele>504.75</ele>
        <time>2025-11-25T12:11:10.343Z</time>
      </trkpt>
      <trkpt lat="45.48158" lon="4.44436">
        <ele>505</ele>
        <time>2025-11-25T12:11:21.400Z</time>
      </trkpt>
      <trkpt lat="45.48157" lon="4.44443">
        <ele>505</ele>
        <time>2025-11-25T12:11:23.894Z</time>
      </trkpt>
      <trkpt lat="45.48155" lon="4.4445">
        <ele>505.25</ele>
        <time>2025-11-25T12:11:26.444Z</time>
      </trkpt>
      <trkpt lat="45.4816" lon="4.44456">
        <ele>505.5</ele>
        <time>2025-11-25T12:11:29.260Z</time>
      </trkpt>
      <trkpt lat="45.4817" lon="4.44469">
        <ele>506.25</ele>
        <time>2025-11-25T12:11:36.376Z</time>
      </trkpt>
      <trkpt lat="45.48177" lon="4.44477">
        <ele>506.5</ele>
        <time>2025-11-25T12:11:40.657Z</time>
      </trkpt>
      <trkpt lat="45.48191" lon="4.44497">
        <ele>507.5</ele>
        <time>2025-11-25T12:11:50.556Z</time>
      </trkpt>
      <trkpt lat="45.48211" lon="4.44526">
        <ele>508.5</ele>
        <time>2025-11-25T12:12:05.167Z</time>
      </trkpt>
      <trkpt lat="45.4821" lon="4.44531">
        <ele>508.75</ele>
        <time>2025-11-25T12:12:06.978Z</time>
      </trkpt>
      <trkpt lat="45.48206" lon="4.44548">
        <ele>509</ele>
        <time>2025-11-25T12:12:13.135Z</time>
      </trkpt>
      <trkpt lat="45.48203" lon="4.44596">
        <ele>510</ele>
        <time>2025-11-25T12:12:30.281Z</time>
      </trkpt>
      <trkpt lat="45.48203" lon="4.44659">
        <ele>511.5</ele>
        <time>2025-11-25T12:12:52.419Z</time>
      </trkpt>
      <trkpt lat="45.48204" lon="4.44676">
        <ele>511.75</ele>
        <time>2025-11-25T12:12:58.325Z</time>
      </trkpt>
      <trkpt lat="45.48226" lon="4.4479">
        <ele>514</ele>
        <time>2025-11-25T12:13:39.697Z</time>
      </trkpt>
      <trkpt lat="45.48246" lon="4.44833">
        <ele>515.75</ele>
        <time>2025-11-25T12:13:58.001Z</time>
      </trkpt>
      <trkpt lat="45.48257" lon="4.44859">
        <ele>516.25</ele>
        <time>2025-11-25T12:14:08.624Z</time>
      </trkpt>
      <trkpt lat="45.48263" lon="4.44885">
        <ele>516.5</ele>
        <time>2025-11-25T12:14:18.224Z</time>
      </trkpt>
      <trkpt lat="45.48269" lon="4.44927">
        <ele>516.5</ele>
        <time>2025-11-25T12:14:32.972Z</time>
      </trkpt>
      <trkpt lat="45.48269" lon="4.44934">
        <ele>516.5</ele>
        <time>2025-11-25T12:14:35.610Z</time>
      </trkpt>
      <trkpt lat="45.48271" lon="4.44932">
        <ele>516.5</ele>
        <time>2025-11-25T12:14:37.146Z</time>
      </trkpt>
      <trkpt lat="45.48269" lon="4.44934">
        <ele>516.5</ele>
        <time>2025-11-25T12:14:38.682Z</time>
      </trkpt>
      <trkpt lat="45.48263" lon="4.44943">
        <ele>516.25</ele>
        <time>2025-11-25T12:14:42.606Z</time>
      </trkpt>
      <trkpt lat="45.48259" lon="4.4495">
        <ele>516</ele>
        <time>2025-11-25T12:14:46.004Z</time>
      </trkpt>
      <trkpt lat="45.48225" lon="4.44995">
        <ele>513.5</ele>
        <time>2025-11-25T12:15:09.198Z</time>
      </trkpt>
      <trkpt lat="45.48225" lon="4.44996">
        <ele>512.25</ele>
        <time>2025-11-25T12:15:09.646Z</time>
      </trkpt>
      <trkpt lat="45.48225" lon="4.44995">
        <ele>514</ele>
        <time>2025-11-25T13:48:49.000Z</time>
      </trkpt>
      <trkpt lat="45.4823" lon="4.45004">
        <ele>514</ele>
        <time>2025-11-25T13:48:53.000Z</time>
      </trkpt>
      <trkpt lat="45.48251" lon="4.45086">
        <ele>517</ele>
        <time>2025-11-25T13:49:24.000Z</time>
      </trkpt>
      <trkpt lat="45.48274" lon="4.45214">
        <ele>517</ele>
        <time>2025-11-25T13:50:10.000Z</time>
      </trkpt>
      <trkpt lat="45.48281" lon="4.45226">
        <ele>517</ele>
        <time>2025-11-25T13:50:16.000Z</time>
      </trkpt>
      <trkpt lat="45.4829" lon="4.45234">
        <ele>517</ele>
        <time>2025-11-25T13:50:21.000Z</time>
      </trkpt>
      <trkpt lat="45.48302" lon="4.45239">
        <ele>517</ele>
        <time>2025-11-25T13:50:27.000Z</time>
      </trkpt>
      <trkpt lat="45.48385" lon="4.4524">
        <ele>523</ele>
        <time>2025-11-25T13:51:09.000Z</time>
      </trkpt>
      <trkpt lat="45.48429" lon="4.45262">
        <ele>525</ele>
        <time>2025-11-25T13:51:32.000Z</time>
      </trkpt>
      <trkpt lat="45.4844" lon="4.45264">
        <ele>525</ele>
        <time>2025-11-25T13:51:38.000Z</time>
      </trkpt>
      <trkpt lat="45.4845" lon="4.45262">
        <ele>525</ele>
        <time>2025-11-25T13:51:43.000Z</time>
      </trkpt>
      <trkpt lat="45.4852" lon="4.45219">
        <ele>530</ele>
        <time>2025-11-25T13:52:21.000Z</time>
      </trkpt>
      <trkpt lat="45.48526" lon="4.45227">
        <ele>531</ele>
        <time>2025-11-25T13:52:25.000Z</time>
      </trkpt>
      <trkpt lat="45.48524" lon="4.45243">
        <ele>530</ele>
        <time>2025-11-25T13:52:31.000Z</time>
      </trkpt>
      <trkpt lat="45.48551" lon="4.45322">
        <ele>526</ele>
        <time>2025-11-25T13:53:02.000Z</time>
      </trkpt>
      <trkpt lat="45.4855" lon="4.45334">
        <ele>525</ele>
        <time>2025-11-25T13:53:06.000Z</time>
      </trkpt>
      <trkpt lat="45.48539" lon="4.45364">
        <ele>520</ele>
        <time>2025-11-25T13:53:18.000Z</time>
      </trkpt>
      <trkpt lat="45.48542" lon="4.45375">
        <ele>518</ele>
        <time>2025-11-25T13:53:22.000Z</time>
      </trkpt>
      <trkpt lat="45.48549" lon="4.45377">
        <ele>518</ele>
        <time>2025-11-25T13:53:25.000Z</time>
      </trkpt>
      <trkpt lat="45.48576" lon="4.45367">
        <ele>520</ele>
        <time>2025-11-25T13:53:39.000Z</time>
      </trkpt>
      <trkpt lat="45.48585" lon="4.45366">
        <ele>520</ele>
        <time>2025-11-25T13:53:44.000Z</time>
      </trkpt>
      <trkpt lat="45.48645" lon="4.45377">
        <ele>515</ele>
        <time>2025-11-25T13:54:14.000Z</time>
      </trkpt>
      <trkpt lat="45.48691" lon="4.4539">
        <ele>509</ele>
        <time>2025-11-25T13:54:38.000Z</time>
      </trkpt>
      <trkpt lat="45.48707" lon="4.45401">
        <ele>506</ele>
        <time>2025-11-25T13:54:46.000Z</time>
      </trkpt>
      <trkpt lat="45.48757" lon="4.45449">
        <ele>496</ele>
        <time>2025-11-25T13:55:17.000Z</time>
      </trkpt>
      <trkpt lat="45.48763" lon="4.45473">
        <ele>492</ele>
        <time>2025-11-25T13:55:26.000Z</time>
      </trkpt>
      <trkpt lat="45.48785" lon="4.45513">
        <ele>487</ele>
        <time>2025-11-25T13:55:43.000Z</time>
      </trkpt>
      <trkpt lat="45.48778" lon="4.45519">
        <ele>485</ele>
        <time>2025-11-25T13:55:48.000Z</time>
      </trkpt>
      <trkpt lat="45.48757" lon="4.45517">
        <ele>484</ele>
        <time>2025-11-25T13:55:58.000Z</time>
      </trkpt>
      <trkpt lat="45.4876" lon="4.45518">
        <ele>484</ele>
        <time>2025-11-25T13:56:00.000Z</time>
      </trkpt>
      <trkpt lat="45.48758" lon="4.45542">
        <ele>480</ele>
        <time>2025-11-25T13:56:08.000Z</time>
      </trkpt>
      <trkpt lat="45.48763" lon="4.45576">
        <ele>475</ele>
        <time>2025-11-25T13:56:20.000Z</time>
      </trkpt>
      <trkpt lat="45.48769" lon="4.45603">
        <ele>473</ele>
        <time>2025-11-25T13:56:30.000Z</time>
      </trkpt>
      <trkpt lat="45.48774" lon="4.45612">
        <ele>472</ele>
        <time>2025-11-25T13:56:34.000Z</time>
      </trkpt>
      <trkpt lat="45.48786" lon="4.45633">
        <ele>471</ele>
        <time>2025-11-25T13:56:44.000Z</time>
      </trkpt>
      <trkpt lat="45.48825" lon="4.45677">
        <ele>472</ele>
        <time>2025-11-25T13:57:09.000Z</time>
      </trkpt>
      <trkpt lat="45.48967" lon="4.45767">
        <ele>487</ele>
        <time>2025-11-25T13:58:26.000Z</time>
      </trkpt>
      <trkpt lat="45.48983" lon="4.45782">
        <ele>487</ele>
        <time>2025-11-25T13:58:36.000Z</time>
      </trkpt>
      <trkpt lat="45.4903" lon="4.45859">
        <ele>484</ele>
        <time>2025-11-25T13:59:12.000Z</time>
      </trkpt>
      <trkpt lat="45.4904" lon="4.45888">
        <ele>482</ele>
        <time>2025-11-25T13:59:23.000Z</time>
      </trkpt>
      <trkpt lat="45.49047" lon="4.4598">
        <ele>480</ele>
        <time>2025-11-25T13:59:56.000Z</time>
      </trkpt>
      <trkpt lat="45.49053" lon="4.45995">
        <ele>479</ele>
        <time>2025-11-25T14:00:02.000Z</time>
      </trkpt>
      <trkpt lat="45.49069" lon="4.46008">
        <ele>477</ele>
        <time>2025-11-25T14:00:11.000Z</time>
      </trkpt>
      <trkpt lat="45.49091" lon="4.46014">
        <ele>475</ele>
        <time>2025-11-25T14:00:22.000Z</time>
      </trkpt>
      <trkpt lat="45.4914" lon="4.46014">
        <ele>476</ele>
        <time>2025-11-25T14:00:47.000Z</time>
      </trkpt>
      <trkpt lat="45.49158" lon="4.46023">
        <ele>477</ele>
        <time>2025-11-25T14:00:56.000Z</time>
      </trkpt>
      <trkpt lat="45.49164" lon="4.46022">
        <ele>477</ele>
        <time>2025-11-25T14:00:59.000Z</time>
      </trkpt>
      <trkpt lat="45.49167" lon="4.46019">
        <ele>476</ele>
        <time>2025-11-25T14:01:01.000Z</time>
      </trkpt>
      <trkpt lat="45.49182" lon="4.45993">
        <ele>477</ele>
        <time>2025-11-25T14:01:13.000Z</time>
      </trkpt>
      <trkpt lat="45.49187" lon="4.45965">
        <ele>480</ele>
        <time>2025-11-25T14:01:23.000Z</time>
      </trkpt>
      <trkpt lat="45.49194" lon="4.45947">
        <ele>481</ele>
        <time>2025-11-25T14:01:30.000Z</time>
      </trkpt>
      <trkpt lat="45.49247" lon="4.45903">
        <ele>487</ele>
        <time>2025-11-25T14:02:01.000Z</time>
      </trkpt>
      <trkpt lat="45.4926" lon="4.45889">
        <ele>489</ele>
        <time>2025-11-25T14:02:09.000Z</time>
      </trkpt>
      <trkpt lat="45.49293" lon="4.45815">
        <ele>497</ele>
        <time>2025-11-25T14:02:40.000Z</time>
      </trkpt>
      <trkpt lat="45.49329" lon="4.4577">
        <ele>502</ele>
        <time>2025-11-25T14:03:04.000Z</time>
      </trkpt>
      <trkpt lat="45.49351" lon="4.45735">
        <ele>505</ele>
        <time>2025-11-25T14:03:20.000Z</time>
      </trkpt>
      <trkpt lat="45.49364" lon="4.45705">
        <ele>510</ele>
        <time>2025-11-25T14:03:33.000Z</time>
      </trkpt>
      <trkpt lat="45.4941" lon="4.45625">
        <ele>518</ele>
        <time>2025-11-25T14:04:09.000Z</time>
      </trkpt>
      <trkpt lat="45.49426" lon="4.45586">
        <ele>524</ele>
        <time>2025-11-25T14:04:25.000Z</time>
      </trkpt>
      <trkpt lat="45.49439" lon="4.4553">
        <ele>533</ele>
        <time>2025-11-25T14:04:45.000Z</time>
      </trkpt>
      <trkpt lat="45.49453" lon="4.45515">
        <ele>535</ele>
        <time>2025-11-25T14:04:54.000Z</time>
      </trkpt>
      <trkpt lat="45.49483" lon="4.45491">
        <ele>538</ele>
        <time>2025-11-25T14:05:11.000Z</time>
      </trkpt>
      <trkpt lat="45.49516" lon="4.45481">
        <ele>539</ele>
        <time>2025-11-25T14:05:28.000Z</time>
      </trkpt>
      <trkpt lat="45.49539" lon="4.45482">
        <ele>540</ele>
        <time>2025-11-25T14:05:40.000Z</time>
      </trkpt>
      <trkpt lat="45.49551" lon="4.45487">
        <ele>540</ele>
        <time>2025-11-25T14:05:46.000Z</time>
      </trkpt>
      <trkpt lat="45.49562" lon="4.45486">
        <ele>541</ele>
        <time>2025-11-25T14:05:52.000Z</time>
      </trkpt>
      <trkpt lat="45.49578" lon="4.45523">
        <ele>536</ele>
        <time>2025-11-25T14:06:07.000Z</time>
      </trkpt>
      <trkpt lat="45.496" lon="4.45551">
        <ele>533</ele>
        <time>2025-11-25T14:06:22.000Z</time>
      </trkpt>
      <trkpt lat="45.4963" lon="4.45575">
        <ele>531</ele>
        <time>2025-11-25T14:06:39.000Z</time>
      </trkpt>
      <trkpt lat="45.49667" lon="4.45598">
        <ele>529</ele>
        <time>2025-11-25T14:06:59.000Z</time>
      </trkpt>
      <trkpt lat="45.49688" lon="4.45609">
        <ele>526</ele>
        <time>2025-11-25T14:07:10.000Z</time>
      </trkpt>
      <trkpt lat="45.49735" lon="4.4561">
        <ele>525</ele>
        <time>2025-11-25T14:07:34.000Z</time>
      </trkpt>
      <trkpt lat="45.49748" lon="4.45613">
        <ele>524</ele>
        <time>2025-11-25T14:07:40.000Z</time>
      </trkpt>
      <trkpt lat="45.49757" lon="4.4562">
        <ele>522</ele>
        <time>2025-11-25T14:07:45.000Z</time>
      </trkpt>
      <trkpt lat="45.4977" lon="4.45636">
        <ele>520</ele>
        <time>2025-11-25T14:07:54.000Z</time>
      </trkpt>
      <trkpt lat="45.49782" lon="4.45644">
        <ele>518</ele>
        <time>2025-11-25T14:08:01.000Z</time>
      </trkpt>
      <trkpt lat="45.49796" lon="4.45648">
        <ele>518</ele>
        <time>2025-11-25T14:08:08.000Z</time>
      </trkpt>
      <trkpt lat="45.49818" lon="4.45635">
        <ele>518</ele>
        <time>2025-11-25T14:08:20.000Z</time>
      </trkpt>
      <trkpt lat="45.49846" lon="4.45624">
        <ele>519</ele>
        <time>2025-11-25T14:08:34.000Z</time>
      </trkpt>
      <trkpt lat="45.49879" lon="4.45605">
        <ele>522</ele>
        <time>2025-11-25T14:08:52.000Z</time>
      </trkpt>
      <trkpt lat="45.49908" lon="4.45579">
        <ele>521</ele>
        <time>2025-11-25T14:09:09.000Z</time>
      </trkpt>
      <trkpt lat="45.49922" lon="4.45577">
        <ele>522</ele>
        <time>2025-11-25T14:09:16.000Z</time>
      </trkpt>
      <trkpt lat="45.49929" lon="4.45579">
        <ele>523</ele>
        <time>2025-11-25T14:09:20.000Z</time>
      </trkpt>
      <trkpt lat="45.49936" lon="4.45585">
        <ele>524</ele>
        <time>2025-11-25T14:09:24.000Z</time>
      </trkpt>
      <trkpt lat="45.49936" lon="4.45593">
        <ele>525</ele>
        <time>2025-11-25T14:09:27.000Z</time>
      </trkpt>
      <trkpt lat="45.49933" lon="4.45598">
        <ele>526</ele>
        <time>2025-11-25T14:09:29.000Z</time>
      </trkpt>
      <trkpt lat="45.49898" lon="4.45645">
        <ele>527</ele>
        <time>2025-11-25T14:09:53.000Z</time>
      </trkpt>
      <trkpt lat="45.4989" lon="4.4566">
        <ele>527</ele>
        <time>2025-11-25T14:10:00.000Z</time>
      </trkpt>
      <trkpt lat="45.49872" lon="4.45726">
        <ele>531</ele>
        <time>2025-11-25T14:10:24.000Z</time>
      </trkpt>
      <trkpt lat="45.49842" lon="4.45814">
        <ele>530</ele>
        <time>2025-11-25T14:10:59.000Z</time>
      </trkpt>
      <trkpt lat="45.49839" lon="4.45829">
        <ele>530</ele>
        <time>2025-11-25T14:11:04.000Z</time>
      </trkpt>
      <trkpt lat="45.49841" lon="4.45842">
        <ele>531</ele>
        <time>2025-11-25T14:11:09.000Z</time>
      </trkpt>
      <trkpt lat="45.49849" lon="4.45855">
        <ele>533</ele>
        <time>2025-11-25T14:11:15.000Z</time>
      </trkpt>
      <trkpt lat="45.49857" lon="4.45863">
        <ele>534</ele>
        <time>2025-11-25T14:11:20.000Z</time>
      </trkpt>
      <trkpt lat="45.49874" lon="4.45867">
        <ele>539</ele>
        <time>2025-11-25T14:11:29.000Z</time>
      </trkpt>
      <trkpt lat="45.49963" lon="4.45923">
        <ele>557</ele>
        <time>2025-11-25T14:12:17.000Z</time>
      </trkpt>
      <trkpt lat="45.49997" lon="4.45938">
        <ele>562</ele>
        <time>2025-11-25T14:12:35.000Z</time>
      </trkpt>
      <trkpt lat="45.50102" lon="4.4601">
        <ele>570</ele>
        <time>2025-11-25T14:13:33.000Z</time>
      </trkpt>
      <trkpt lat="45.50102" lon="4.45998">
        <ele>572</ele>
        <time>2025-11-25T14:13:38.000Z</time>
      </trkpt>
      <trkpt lat="45.5009" lon="4.45948">
        <ele>580</ele>
        <time>2025-11-25T14:13:56.000Z</time>
      </trkpt>
      <trkpt lat="45.50071" lon="4.45896">
        <ele>585</ele>
        <time>2025-11-25T14:14:17.000Z</time>
      </trkpt>
      <trkpt lat="45.50069" lon="4.45887">
        <ele>586</ele>
        <time>2025-11-25T14:14:20.000Z</time>
      </trkpt>
      <trkpt lat="45.50071" lon="4.45878">
        <ele>588</ele>
        <time>2025-11-25T14:14:23.000Z</time>
      </trkpt>
      <trkpt lat="45.50121" lon="4.45873">
        <ele>596</ele>
        <time>2025-11-25T14:14:48.000Z</time>
      </trkpt>
      <trkpt lat="45.50136" lon="4.45868">
        <ele>599</ele>
        <time>2025-11-25T14:14:56.000Z</time>
      </trkpt>
      <trkpt lat="45.50157" lon="4.45853">
        <ele>603</ele>
        <time>2025-11-25T14:15:08.000Z</time>
      </trkpt>
      <trkpt lat="45.50164" lon="4.45852">
        <ele>604</ele>
        <time>2025-11-25T14:15:11.000Z</time>
      </trkpt>
      <trkpt lat="45.50183" lon="4.45857">
        <ele>607</ele>
        <time>2025-11-25T14:15:21.000Z</time>
      </trkpt>
      <trkpt lat="45.50301" lon="4.45842">
        <ele>635</ele>
        <time>2025-11-25T14:16:20.000Z</time>
      </trkpt>
      <trkpt lat="45.5038" lon="4.45855">
        <ele>649</ele>
        <time>2025-11-25T14:17:00.000Z</time>
      </trkpt>
      <trkpt lat="45.50395" lon="4.4586">
        <ele>651</ele>
        <time>2025-11-25T14:17:08.000Z</time>
      </trkpt>
      <trkpt lat="45.50515" lon="4.45826">
        <ele>658</ele>
        <time>2025-11-25T14:18:09.000Z</time>
      </trkpt>
      <trkpt lat="45.50538" lon="4.45831">
        <ele>659</ele>
        <time>2025-11-25T14:18:21.000Z</time>
      </trkpt>
      <trkpt lat="45.50569" lon="4.45847">
        <ele>663</ele>
        <time>2025-11-25T14:18:37.000Z</time>
      </trkpt>
      <trkpt lat="45.50618" lon="4.45885">
        <ele>669</ele>
        <time>2025-11-25T14:19:05.000Z</time>
      </trkpt>
      <trkpt lat="45.50665" lon="4.45902">
        <ele>669</ele>
        <time>2025-11-25T14:19:29.000Z</time>
      </trkpt>
      <trkpt lat="45.50693" lon="4.45923">
        <ele>669</ele>
        <time>2025-11-25T14:19:45.000Z</time>
      </trkpt>
      <trkpt lat="45.50709" lon="4.45952">
        <ele>669</ele>
        <time>2025-11-25T14:19:58.000Z</time>
      </trkpt>
      <trkpt lat="45.5074" lon="4.45986">
        <ele>668</ele>
        <time>2025-11-25T14:20:18.000Z</time>
      </trkpt>
      <trkpt lat="45.50763" lon="4.46004">
        <ele>667</ele>
        <time>2025-11-25T14:20:31.000Z</time>
      </trkpt>
      <trkpt lat="45.50814" lon="4.46037">
        <ele>666</ele>
        <time>2025-11-25T14:20:59.000Z</time>
      </trkpt>
      <trkpt lat="45.50813" lon="4.46041">
        <ele>666</ele>
        <time>2025-11-25T14:21:00.000Z</time>
      </trkpt>
      <trkpt lat="45.50831" lon="4.46085">
        <ele>666</ele>
        <time>2025-11-25T14:21:18.000Z</time>
      </trkpt>
      <trkpt lat="45.50853" lon="4.46136">
        <ele>665</ele>
        <time>2025-11-25T14:21:39.000Z</time>
      </trkpt>
      <trkpt lat="45.50862" lon="4.46151">
        <ele>665</ele>
        <time>2025-11-25T14:21:46.000Z</time>
      </trkpt>
      <trkpt lat="45.50908" lon="4.46201">
        <ele>671</ele>
        <time>2025-11-25T14:22:15.000Z</time>
      </trkpt>
      <trkpt lat="45.50924" lon="4.46215">
        <ele>672</ele>
        <time>2025-11-25T14:22:24.000Z</time>
      </trkpt>
      <trkpt lat="45.50971" lon="4.46241">
        <ele>676</ele>
        <time>2025-11-25T14:22:50.000Z</time>
      </trkpt>
      <trkpt lat="45.51004" lon="4.46268">
        <ele>675</ele>
        <time>2025-11-25T14:23:09.000Z</time>
      </trkpt>
      <trkpt lat="45.51049" lon="4.46291">
        <ele>674</ele>
        <time>2025-11-25T14:23:33.000Z</time>
      </trkpt>
      <trkpt lat="45.51079" lon="4.4631">
        <ele>674</ele>
        <time>2025-11-25T14:23:49.000Z</time>
      </trkpt>
      <trkpt lat="45.51129" lon="4.46315">
        <ele>672</ele>
        <time>2025-11-25T14:24:14.000Z</time>
      </trkpt>
      <trkpt lat="45.51147" lon="4.46322">
        <ele>671</ele>
        <time>2025-11-25T14:24:23.000Z</time>
      </trkpt>
      <trkpt lat="45.5117" lon="4.46327">
        <ele>670</ele>
        <time>2025-11-25T14:24:35.000Z</time>
      </trkpt>
      <trkpt lat="45.51236" lon="4.46355">
        <ele>660</ele>
        <time>2025-11-25T14:25:10.000Z</time>
      </trkpt>
      <trkpt lat="45.51251" lon="4.46375">
        <ele>657</ele>
        <time>2025-11-25T14:25:20.000Z</time>
      </trkpt>
      <trkpt lat="45.51355" lon="4.4654">
        <ele>655</ele>
        <time>2025-11-25T14:26:38.000Z</time>
      </trkpt>
      <trkpt lat="45.51364" lon="4.46544">
        <ele>655</ele>
        <time>2025-11-25T14:26:42.000Z</time>
      </trkpt>
      <trkpt lat="45.51386" lon="4.46598">
        <ele>655</ele>
        <time>2025-11-25T14:27:04.000Z</time>
      </trkpt>
      <trkpt lat="45.51425" lon="4.46708">
        <ele>657</ele>
        <time>2025-11-25T14:27:47.000Z</time>
      </trkpt>
      <trkpt lat="45.5145" lon="4.46764">
        <ele>658</ele>
        <time>2025-11-25T14:28:11.000Z</time>
      </trkpt>
      <trkpt lat="45.51552" lon="4.46933">
        <ele>662</ele>
        <time>2025-11-25T14:29:29.000Z</time>
      </trkpt>
      <trkpt lat="45.51593" lon="4.46985">
        <ele>664</ele>
        <time>2025-11-25T14:29:56.000Z</time>
      </trkpt>
      <trkpt lat="45.51606" lon="4.47007">
        <ele>664</ele>
        <time>2025-11-25T14:30:07.000Z</time>
      </trkpt>
      <trkpt lat="45.51644" lon="4.46994">
        <ele>664</ele>
        <time>2025-11-25T14:30:26.000Z</time>
      </trkpt>
      <trkpt lat="45.51678" lon="4.46991">
        <ele>664</ele>
        <time>2025-11-25T14:30:43.000Z</time>
      </trkpt>
      <trkpt lat="45.51767" lon="4.46999">
        <ele>662</ele>
        <time>2025-11-25T14:31:28.000Z</time>
      </trkpt>
      <trkpt lat="45.51792" lon="4.47007">
        <ele>661</ele>
        <time>2025-11-25T14:31:41.000Z</time>
      </trkpt>
      <trkpt lat="45.51825" lon="4.47034">
        <ele>660</ele>
        <time>2025-11-25T14:32:00.000Z</time>
      </trkpt>
      <trkpt lat="45.51839" lon="4.47033">
        <ele>660</ele>
        <time>2025-11-25T14:32:07.000Z</time>
      </trkpt>
      <trkpt lat="45.51851" lon="4.47027">
        <ele>660</ele>
        <time>2025-11-25T14:32:13.000Z</time>
      </trkpt>
      <trkpt lat="45.51864" lon="4.47013">
        <ele>659</ele>
        <time>2025-11-25T14:32:21.000Z</time>
      </trkpt>
      <trkpt lat="45.51874" lon="4.46988">
        <ele>659</ele>
        <time>2025-11-25T14:32:31.000Z</time>
      </trkpt>
      <trkpt lat="45.51887" lon="4.46899">
        <ele>664</ele>
        <time>2025-11-25T14:33:03.000Z</time>
      </trkpt>
      <trkpt lat="45.51928" lon="4.46762">
        <ele>678</ele>
        <time>2025-11-25T14:33:55.000Z</time>
      </trkpt>
      <trkpt lat="45.51972" lon="4.4666">
        <ele>687</ele>
        <time>2025-11-25T14:34:37.000Z</time>
      </trkpt>
      <trkpt lat="45.51983" lon="4.46644">
        <ele>689</ele>
        <time>2025-11-25T14:34:45.000Z</time>
      </trkpt>
      <trkpt lat="45.52005" lon="4.46634">
        <ele>694</ele>
        <time>2025-11-25T14:34:57.000Z</time>
      </trkpt>
      <trkpt lat="45.52029" lon="4.46607">
        <ele>698</ele>
        <time>2025-11-25T14:35:12.000Z</time>
      </trkpt>
      <trkpt lat="45.52033" lon="4.46591">
        <ele>698</ele>
        <time>2025-11-25T14:35:18.000Z</time>
      </trkpt>
      <trkpt lat="45.52031" lon="4.46547">
        <ele>700</ele>
        <time>2025-11-25T14:35:33.000Z</time>
      </trkpt>
      <trkpt lat="45.5204" lon="4.4651">
        <ele>705</ele>
        <time>2025-11-25T14:35:47.000Z</time>
      </trkpt>
      <trkpt lat="45.52047" lon="4.46496">
        <ele>707</ele>
        <time>2025-11-25T14:35:53.000Z</time>
      </trkpt>
      <trkpt lat="45.52055" lon="4.46496">
        <ele>708</ele>
        <time>2025-11-25T14:35:57.000Z</time>
      </trkpt>
      <trkpt lat="45.5207" lon="4.46509">
        <ele>708</ele>
        <time>2025-11-25T14:36:06.000Z</time>
      </trkpt>
      <trkpt lat="45.52079" lon="4.46507">
        <ele>709</ele>
        <time>2025-11-25T14:36:11.000Z</time>
      </trkpt>
      <trkpt lat="45.5212" lon="4.46558">
        <ele>709</ele>
        <time>2025-11-25T14:36:38.000Z</time>
      </trkpt>
      <trkpt lat="45.52219" lon="4.46728">
        <ele>715</ele>
        <time>2025-11-25T14:37:55.000Z</time>
      </trkpt>
      <trkpt lat="45.52234" lon="4.46847">
        <ele>715</ele>
        <time>2025-11-25T14:38:38.000Z</time>
      </trkpt>
      <trkpt lat="45.52313" lon="4.47135">
        <ele>727</ele>
        <time>2025-11-25T14:40:26.000Z</time>
      </trkpt>
      <trkpt lat="45.52341" lon="4.4728">
        <ele>729</ele>
        <time>2025-11-25T14:41:19.000Z</time>
      </trkpt>
      <trkpt lat="45.52394" lon="4.47391">
        <ele>735</ele>
        <time>2025-11-25T14:42:06.000Z</time>
      </trkpt>
      <trkpt lat="45.52406" lon="4.47422">
        <ele>737</ele>
        <time>2025-11-25T14:42:18.000Z</time>
      </trkpt>
      <trkpt lat="45.52387" lon="4.47525">
        <ele>735</ele>
        <time>2025-11-25T14:42:56.000Z</time>
      </trkpt>
      <trkpt lat="45.52388" lon="4.47566">
        <ele>733</ele>
        <time>2025-11-25T14:43:10.000Z</time>
      </trkpt>
      <trkpt lat="45.52396" lon="4.47636">
        <ele>728</ele>
        <time>2025-11-25T14:43:35.000Z</time>
      </trkpt>
      <trkpt lat="45.52394" lon="4.47649">
        <ele>727</ele>
        <time>2025-11-25T14:43:40.000Z</time>
      </trkpt>
      <trkpt lat="45.52391" lon="4.47654">
        <ele>726</ele>
        <time>2025-11-25T14:43:42.000Z</time>
      </trkpt>
      <trkpt lat="45.52394" lon="4.47676">
        <ele>725</ele>
        <time>2025-11-25T14:43:50.000Z</time>
      </trkpt>
      <trkpt lat="45.52393" lon="4.47698">
        <ele>725</ele>
        <time>2025-11-25T14:43:58.000Z</time>
      </trkpt>
      <trkpt lat="45.52473" lon="4.47715">
        <ele>725</ele>
        <time>2025-11-25T14:44:38.000Z</time>
      </trkpt>
      <trkpt lat="45.52547" lon="4.47737">
        <ele>716</ele>
        <time>2025-11-25T14:45:16.000Z</time>
      </trkpt>
      <trkpt lat="45.52578" lon="4.47741">
        <ele>711</ele>
        <time>2025-11-25T14:45:31.000Z</time>
      </trkpt>
      <trkpt lat="45.52598" lon="4.4775">
        <ele>709</ele>
        <time>2025-11-25T14:45:42.000Z</time>
      </trkpt>
      <trkpt lat="45.52735" lon="4.47931">
        <ele>691</ele>
        <time>2025-11-25T14:47:15.000Z</time>
      </trkpt>
      <trkpt lat="45.52726" lon="4.47959">
        <ele>692</ele>
        <time>2025-11-25T14:47:26.000Z</time>
      </trkpt>
      <trkpt lat="45.52727" lon="4.47986">
        <ele>691</ele>
        <time>2025-11-25T14:47:36.000Z</time>
      </trkpt>
      <trkpt lat="45.52738" lon="4.48028">
        <ele>689</ele>
        <time>2025-11-25T14:47:51.000Z</time>
      </trkpt>
      <trkpt lat="45.52749" lon="4.48093">
        <ele>689</ele>
        <time>2025-11-25T14:48:15.000Z</time>
      </trkpt>
      <trkpt lat="45.52753" lon="4.48102">
        <ele>690</ele>
        <time>2025-11-25T14:48:18.000Z</time>
      </trkpt>
      <trkpt lat="45.52778" lon="4.48137">
        <ele>695</ele>
        <time>2025-11-25T14:48:36.000Z</time>
      </trkpt>
      <trkpt lat="45.52819" lon="4.48179">
        <ele>703</ele>
        <time>2025-11-25T14:49:01.000Z</time>
      </trkpt>
      <trkpt lat="45.52791" lon="4.4822">
        <ele>701</ele>
        <time>2025-11-25T14:49:21.000Z</time>
      </trkpt>
      <trkpt lat="45.52723" lon="4.4831">
        <ele>697</ele>
        <time>2025-11-25T14:50:08.000Z</time>
      </trkpt>
      <trkpt lat="45.52707" lon="4.4836">
        <ele>698</ele>
        <time>2025-11-25T14:50:27.000Z</time>
      </trkpt>
      <trkpt lat="45.52692" lon="4.48384">
        <ele>699</ele>
        <time>2025-11-25T14:50:38.000Z</time>
      </trkpt>
      <trkpt lat="45.52656" lon="4.48406">
        <ele>701</ele>
        <time>2025-11-25T14:50:58.000Z</time>
      </trkpt>
      <trkpt lat="45.52661" lon="4.48465">
        <ele>705</ele>
        <time>2025-11-25T14:51:19.000Z</time>
      </trkpt>
      <trkpt lat="45.52658" lon="4.48529">
        <ele>711</ele>
        <time>2025-11-25T14:51:41.000Z</time>
      </trkpt>
      <trkpt lat="45.52626" lon="4.4865">
        <ele>722</ele>
        <time>2025-11-25T14:52:27.000Z</time>
      </trkpt>
      <trkpt lat="45.52611" lon="4.48778">
        <ele>731</ele>
        <time>2025-11-25T14:53:12.000Z</time>
      </trkpt>
      <trkpt lat="45.52609" lon="4.48897">
        <ele>735</ele>
        <time>2025-11-25T14:53:54.000Z</time>
      </trkpt>
      <trkpt lat="45.52669" lon="4.48923">
        <ele>730</ele>
        <time>2025-11-25T14:54:25.000Z</time>
      </trkpt>
      <trkpt lat="45.5283" lon="4.48938">
        <ele>726</ele>
        <time>2025-11-25T14:55:46.000Z</time>
      </trkpt>
      <trkpt lat="45.52895" lon="4.4892">
        <ele>729</ele>
        <time>2025-11-25T14:56:19.000Z</time>
      </trkpt>
      <trkpt lat="45.52976" lon="4.48882">
        <ele>732</ele>
        <time>2025-11-25T14:57:02.000Z</time>
      </trkpt>
      <trkpt lat="45.53077" lon="4.48878">
        <ele>739</ele>
        <time>2025-11-25T14:57:52.000Z</time>
      </trkpt>
      <trkpt lat="45.5312" lon="4.48888">
        <ele>742</ele>
        <time>2025-11-25T14:58:14.000Z</time>
      </trkpt>
      <trkpt lat="45.53166" lon="4.48869">
        <ele>743</ele>
        <time>2025-11-25T14:58:38.000Z</time>
      </trkpt>
      <trkpt lat="45.53211" lon="4.48854">
        <ele>746</ele>
        <time>2025-11-25T14:59:01.000Z</time>
      </trkpt>
      <trkpt lat="45.53254" lon="4.48833">
        <ele>750</ele>
        <time>2025-11-25T14:59:24.000Z</time>
      </trkpt>
      <trkpt lat="45.53284" lon="4.48804">
        <ele>752</ele>
        <time>2025-11-25T14:59:42.000Z</time>
      </trkpt>
      <trkpt lat="45.53335" lon="4.48696">
        <ele>757</ele>
        <time>2025-11-25T15:00:28.000Z</time>
      </trkpt>
      <trkpt lat="45.53368" lon="4.48657">
        <ele>757</ele>
        <time>2025-11-25T15:00:49.000Z</time>
      </trkpt>
      <trkpt lat="45.53412" lon="4.48629">
        <ele>757</ele>
        <time>2025-11-25T15:01:13.000Z</time>
      </trkpt>
      <trkpt lat="45.53448" lon="4.48609">
        <ele>755</ele>
        <time>2025-11-25T15:01:33.000Z</time>
      </trkpt>
      <trkpt lat="45.53457" lon="4.48607">
        <ele>754</ele>
        <time>2025-11-25T15:01:37.000Z</time>
      </trkpt>
      <trkpt lat="45.53467" lon="4.48607">
        <ele>753</ele>
        <time>2025-11-25T15:01:42.000Z</time>
      </trkpt>
      <trkpt lat="45.53481" lon="4.48611">
        <ele>752</ele>
        <time>2025-11-25T15:01:49.000Z</time>
      </trkpt>
      <trkpt lat="45.53493" lon="4.48619">
        <ele>751</ele>
        <time>2025-11-25T15:01:56.000Z</time>
      </trkpt>
      <trkpt lat="45.53503" lon="4.48631">
        <ele>751</ele>
        <time>2025-11-25T15:02:02.000Z</time>
      </trkpt>
      <trkpt lat="45.53515" lon="4.4864">
        <ele>750</ele>
        <time>2025-11-25T15:02:09.000Z</time>
      </trkpt>
      <trkpt lat="45.53532" lon="4.48648">
        <ele>749</ele>
        <time>2025-11-25T15:02:18.000Z</time>
      </trkpt>
      <trkpt lat="45.53548" lon="4.4866">
        <ele>749</ele>
        <time>2025-11-25T15:02:27.000Z</time>
      </trkpt>
      <trkpt lat="45.53584" lon="4.48673">
        <ele>747</ele>
        <time>2025-11-25T15:02:46.000Z</time>
      </trkpt>
      <trkpt lat="45.53602" lon="4.48667">
        <ele>745</ele>
        <time>2025-11-25T15:02:55.000Z</time>
      </trkpt>
      <trkpt lat="45.53658" lon="4.48669">
        <ele>741</ele>
        <time>2025-11-25T15:03:23.000Z</time>
      </trkpt>
      <trkpt lat="45.53668" lon="4.48665">
        <ele>740</ele>
        <time>2025-11-25T15:03:28.000Z</time>
      </trkpt>
      <trkpt lat="45.53674" lon="4.48658">
        <ele>738</ele>
        <time>2025-11-25T15:03:32.000Z</time>
      </trkpt>
      <trkpt lat="45.53721" lon="4.48668">
        <ele>734</ele>
        <time>2025-11-25T15:03:56.000Z</time>
      </trkpt>
      <trkpt lat="45.53755" lon="4.48689">
        <ele>734</ele>
        <time>2025-11-25T15:04:14.000Z</time>
      </trkpt>
      <trkpt lat="45.53768" lon="4.48693">
        <ele>734</ele>
        <time>2025-11-25T15:04:21.000Z</time>
      </trkpt>
      <trkpt lat="45.5378" lon="4.48692">
        <ele>734</ele>
        <time>2025-11-25T15:04:27.000Z</time>
      </trkpt>
      <trkpt lat="45.53828" lon="4.48677">
        <ele>732</ele>
        <time>2025-11-25T15:04:52.000Z</time>
      </trkpt>
      <trkpt lat="45.53856" lon="4.48673">
        <ele>732</ele>
        <time>2025-11-25T15:05:06.000Z</time>
      </trkpt>
      <trkpt lat="45.53881" lon="4.48677">
        <ele>732</ele>
        <time>2025-11-25T15:05:18.000Z</time>
      </trkpt>
      <trkpt lat="45.53907" lon="4.48688">
        <ele>733</ele>
        <time>2025-11-25T15:05:31.589Z</time>
      </trkpt>
      <trkpt lat="45.53907" lon="4.48688">
        <ele>732.5</ele>
        <time>2025-11-25T15:05:31.689Z</time>
      </trkpt>
      <trkpt lat="45.53911" lon="4.48691">
        <ele>733</ele>
        <time>2025-11-25T15:05:34.192Z</time>
      </trkpt>
      <trkpt lat="45.5395" lon="4.4871">
        <ele>736.25</ele>
        <time>2025-11-25T15:05:54.829Z</time>
      </trkpt>
      <trkpt lat="45.53968" lon="4.48723">
        <ele>737.25</ele>
        <time>2025-11-25T15:06:04.830Z</time>
      </trkpt>
      <trkpt lat="45.53977" lon="4.48731">
        <ele>737.5</ele>
        <time>2025-11-25T15:06:09.880Z</time>
      </trkpt>
      <trkpt lat="45.53996" lon="4.48751">
        <ele>737</ele>
        <time>2025-11-25T15:06:21.973Z</time>
      </trkpt>
      <trkpt lat="45.54007" lon="4.48764">
        <ele>738.5</ele>
        <time>2025-11-25T15:06:29.074Z</time>
      </trkpt>
      <trkpt lat="45.54037" lon="4.48804">
        <ele>742</ele>
        <time>2025-11-25T15:06:49.511Z</time>
      </trkpt>
      <trkpt lat="45.54054" lon="4.48819">
        <ele>742.5</ele>
        <time>2025-11-25T15:06:59.770Z</time>
      </trkpt>
      <trkpt lat="45.54121" lon="4.48861">
        <ele>748</ele>
        <time>2025-11-25T15:07:36.273Z</time>
      </trkpt>
      <trkpt lat="45.5413" lon="4.48867">
        <ele>749</ele>
        <time>2025-11-25T15:07:41.327Z</time>
      </trkpt>
      <trkpt lat="45.54146" lon="4.48882">
        <ele>750.25</ele>
        <time>2025-11-25T15:07:50.938Z</time>
      </trkpt>
      <trkpt lat="45.54157" lon="4.48897">
        <ele>750.5</ele>
        <time>2025-11-25T15:07:58.500Z</time>
      </trkpt>
      <trkpt lat="45.54174" lon="4.48922">
        <ele>750.75</ele>
        <time>2025-11-25T15:08:10.755Z</time>
      </trkpt>
      <trkpt lat="45.54179" lon="4.48929">
        <ele>751.25</ele>
        <time>2025-11-25T15:08:14.310Z</time>
      </trkpt>
      <trkpt lat="45.54183" lon="4.48932">
        <ele>751.75</ele>
        <time>2025-11-25T15:08:16.599Z</time>
      </trkpt>
      <trkpt lat="45.54187" lon="4.48933">
        <ele>752.25</ele>
        <time>2025-11-25T15:08:18.696Z</time>
      </trkpt>
      <trkpt lat="45.54191" lon="4.48934">
        <ele>752.75</ele>
        <time>2025-11-25T15:08:20.551Z</time>
      </trkpt>
      <trkpt lat="45.54196" lon="4.48933">
        <ele>753.25</ele>
        <time>2025-11-25T15:08:23.173Z</time>
      </trkpt>
      <trkpt lat="45.54196" lon="4.48933">
        <ele>753.25</ele>
        <time>2025-11-25T15:08:23.173Z</time>
      </trkpt>
      <trkpt lat="45.54201" lon="4.48931">
        <ele>754</ele>
        <time>2025-11-25T15:08:25.555Z</time>
      </trkpt>
      <trkpt lat="45.54212" lon="4.48924">
        <ele>756</ele>
        <time>2025-11-25T15:08:31.546Z</time>
      </trkpt>
      <trkpt lat="45.54221" lon="4.48913">
        <ele>758</ele>
        <time>2025-11-25T15:08:37.631Z</time>
      </trkpt>
      <trkpt lat="45.54251" lon="4.48875">
        <ele>765</ele>
        <time>2025-11-25T15:08:57.833Z</time>
      </trkpt>
      <trkpt lat="45.54265" lon="4.48858">
        <ele>768.25</ele>
        <time>2025-11-25T15:09:06.769Z</time>
      </trkpt>
      <trkpt lat="45.54267" lon="4.48862">
        <ele>768.25</ele>
        <time>2025-11-25T15:09:08.916Z</time>
      </trkpt>
      <trkpt lat="45.54282" lon="4.48882">
        <ele>768.25</ele>
        <time>2025-11-25T15:09:18.868Z</time>
        <extensions>
          <visugpx:TrkExtension xmlns:visugpx="https://www.visugpx.com/editgpx/">
            <visugpx:node>1</visugpx:node>
            </visugpx:TrkExtension>
        </extensions>
      </trkpt>
    </trkseg>
  </trk>
</gpx>